createdAt,value
2023-03-13T00:01:40.844Z,99904.03
2023-03-13T00:04:08.755Z,99899.63
2023-03-13T00:06:37.752Z,99894.38
2023-03-13T00:09:07.228Z,99891.75
2023-03-13T00:11:34.836Z,99889.13
2023-03-13T00:14:05.243Z,99883.88
2023-03-13T00:16:34.581Z,99877.75
2023-03-13T00:19:02.651Z,99880.34
2023-03-13T00:21:32.098Z,99876.84
2023-03-13T00:24:00.709Z,99875.09
2023-03-13T00:26:30.088Z,99884.72
2023-03-13T00:28:58.035Z,99869.81
2023-03-13T00:31:29.941Z,99869.81
2023-03-13T00:34:00.229Z,99868.03
2023-03-13T00:36:30.037Z,99865.38
2023-03-13T00:38:59.792Z,99871.53
2023-03-13T00:41:30.006Z,99862.75
2023-03-13T00:43:58.386Z,99866.25
2023-03-13T00:46:30.119Z,99859.22
2023-03-13T00:48:58.386Z,99853.97
2023-03-13T00:51:27.556Z,99860.97
2023-03-13T00:53:56.715Z,99856.59
2023-03-13T00:56:24.445Z,99847.78
2023-03-13T00:58:52.610Z,99839.00
2023-03-13T01:01:22.212Z,99839.88
2023-03-13T01:03:54.491Z,99833.75
2023-03-13T01:06:24.631Z,99843.44
2023-03-13T01:08:52.908Z,99828.53
2023-03-13T01:11:22.666Z,99833.78
2023-03-13T01:13:51.185Z,99830.31
2023-03-13T01:16:22.032Z,99832.09
2023-03-13T01:18:53.102Z,99830.34
2023-03-13T01:21:22.552Z,99822.47
2023-03-13T01:23:51.157Z,99831.28
2023-03-13T01:26:19.428Z,99819.84
2023-03-13T01:28:47.970Z,99818.09
2023-03-13T01:31:19.803Z,99814.63
2023-03-13T01:33:50.503Z,99806.72
2023-03-13T01:36:19.956Z,99801.44
2023-03-13T01:38:50.030Z,99809.34
2023-03-13T01:41:18.118Z,99798.81
2023-03-13T01:43:46.838Z,99794.44
2023-03-13T01:46:18.003Z,99789.13
2023-03-13T01:49:12.308Z,99780.38
2023-03-13T01:51:51.412Z,99778.63
2023-03-13T01:54:22.281Z,99775.13
2023-03-13T01:56:54.374Z,99769.88
2023-03-13T01:59:26.105Z,99783.94
2023-03-13T02:02:00.226Z,99769.88
2023-03-13T02:04:31.340Z,99771.66
2023-03-13T02:07:04.319Z,99768.13
2023-03-13T02:09:34.647Z,99762.84
2023-03-13T02:12:05.712Z,99771.66
2023-03-13T02:14:36.546Z,99754.09
2023-03-13T02:17:05.574Z,99748.81
2023-03-13T02:19:40.746Z,99750.53
2023-03-13T02:22:15.774Z,99745.28
2023-03-13T02:24:51.114Z,99738.25
2023-03-13T02:27:20.182Z,99741.78
2023-03-13T02:29:48.938Z,99740.00
2023-03-13T02:32:17.131Z,99732.09
2023-03-13T02:34:46.637Z,99724.19
2023-03-13T02:37:16.732Z,99724.19
2023-03-13T02:39:47.281Z,99705.75
2023-03-13T02:42:18.540Z,99713.66
2023-03-13T02:44:48.474Z,99710.13
2023-03-13T02:47:19.301Z,99701.34
2023-03-13T02:49:47.225Z,99696.06
2023-03-13T02:52:18.857Z,99692.56
2023-03-13T02:54:51.316Z,99690.81
2023-03-13T02:57:20.432Z,99682.00
2023-03-13T02:59:49.507Z,99680.25
2023-03-13T03:02:17.419Z,99690.78
2023-03-13T03:04:45.140Z,99670.56
2023-03-13T03:07:12.909Z,99665.31
2023-03-13T03:09:43.596Z,99660.03
2023-03-13T03:12:17.718Z,99655.63
2023-03-13T03:14:45.666Z,99650.34
2023-03-13T03:17:14.840Z,99655.63
2023-03-13T03:19:42.671Z,99652.94
2023-03-13T03:22:10.764Z,99663.50
2023-03-13T03:24:38.364Z,99646.81
2023-03-13T03:27:06.142Z,99630.97
2023-03-13T03:29:39.917Z,99634.47
2023-03-13T03:32:07.898Z,99629.19
2023-03-13T03:34:36.984Z,99631.84
2023-03-13T03:37:05.307Z,99630.06
2023-03-13T03:39:33.025Z,99637.97
2023-03-13T03:42:01.135Z,99631.81
2023-03-13T03:44:28.808Z,99621.25
2023-03-13T03:46:59.628Z,99610.69
2023-03-13T03:49:30.060Z,99610.69
2023-03-13T03:51:59.110Z,99608.03
2023-03-13T03:54:32.581Z,99618.59
2023-03-13T03:57:01.058Z,99601.00
2023-03-13T03:59:29.012Z,99600.13
2023-03-13T04:01:59.261Z,99594.00
2023-03-13T04:04:29.756Z,99597.50
2023-03-13T04:07:13.720Z,99586.94
2023-03-13T04:09:41.873Z,99587.84
2023-03-13T04:12:14.334Z,99576.44
2023-03-13T04:14:45.319Z,99578.22
2023-03-13T04:17:17.052Z,99570.31
2023-03-13T04:19:46.094Z,99565.06
2023-03-13T04:22:15.564Z,99560.69
2023-03-13T04:24:48.618Z,99554.56
2023-03-13T04:27:16.571Z,99544.00
2023-03-13T04:29:46.269Z,99540.50
2023-03-13T04:32:32.670Z,99535.25
2023-03-13T04:35:19.092Z,99523.81
2023-03-13T04:38:08.416Z,99513.28
2023-03-13T04:40:54.240Z,99502.78
2023-03-13T04:43:39.715Z,99500.16
2023-03-13T04:46:14.467Z,99492.25
2023-03-13T04:49:11.044Z,99479.06
2023-03-13T04:52:01.197Z,99463.25
2023-03-13T04:54:51.085Z,99459.75
2023-03-13T04:57:36.091Z,99463.25
2023-03-13T05:00:15.454Z,99453.59
2023-03-13T05:02:49.672Z,99436.00
2023-03-13T05:05:35.161Z,99431.63
2023-03-13T05:08:28.627Z,99413.19
2023-03-13T05:11:20.480Z,99392.97
2023-03-13T05:14:04.509Z,99386.81
2023-03-13T05:16:49.353Z,99380.69
2023-03-13T05:19:33.915Z,99378.06
2023-03-13T05:22:21.389Z,99379.78
2023-03-13T05:25:09.892Z,99374.50
2023-03-13T05:27:59.154Z,99360.47
2023-03-13T05:31:05.122Z,99372.75
2023-03-13T05:33:48.685Z,99362.25
2023-03-13T05:36:30.144Z,99363.09
2023-03-13T05:39:16.781Z,99348.16
2023-03-13T05:41:50.146Z,99338.53
2023-03-13T05:44:45.548Z,99335.84
2023-03-13T05:47:34.616Z,99342.88
2023-03-13T05:50:06.160Z,99338.50
2023-03-13T05:52:57.301Z,99345.53
2023-03-13T05:55:41.397Z,99331.47
2023-03-13T05:58:29.366Z,99347.28
2023-03-13T06:01:17.857Z,99331.47
2023-03-13T06:03:53.837Z,99331.44
2023-03-13T06:06:21.665Z,99329.69
2023-03-13T06:08:54.546Z,99323.53
2023-03-13T06:11:24.027Z,99315.59
2023-03-13T06:13:52.511Z,99305.94
2023-03-13T06:16:28.119Z,99299.78
2023-03-13T06:19:12.802Z,99294.50
2023-03-13T06:21:40.579Z,99298.00
2023-03-13T06:24:08.287Z,99295.34
2023-03-13T06:26:36.337Z,99299.75
2023-03-13T06:29:04.192Z,99290.97
2023-03-13T06:31:33.920Z,99291.81
2023-03-13T06:34:01.560Z,99293.56
2023-03-13T06:36:29.295Z,99298.81
2023-03-13T06:38:57.007Z,99299.66
2023-03-13T06:42:48.967Z,99278.53
2023-03-13T06:45:17.012Z,99279.34
2023-03-13T06:47:44.803Z,99261.75
2023-03-13T06:50:12.646Z,99262.59
2023-03-13T06:52:44.121Z,99263.47
2023-03-13T06:55:13.659Z,99261.66
2023-03-13T06:57:41.548Z,99259.94
2023-03-13T07:00:12.808Z,99252.88
2023-03-13T07:02:44.006Z,99251.09
2023-03-13T07:05:11.749Z,99251.09
2023-03-13T07:07:39.469Z,99246.72
2023-03-13T07:10:08.237Z,99246.72
2023-03-13T07:12:36.092Z,99246.66
2023-03-13T07:15:04.101Z,99243.16
2023-03-13T07:17:33.177Z,99242.25
2023-03-13T07:20:00.871Z,99240.47
2023-03-13T07:22:28.568Z,99236.03
2023-03-13T07:24:56.263Z,99230.72
2023-03-13T07:27:24.291Z,99226.22
2023-03-13T07:29:52.048Z,99225.34
2023-03-13T07:32:19.788Z,99215.56
2023-03-13T07:34:48.802Z,99220.78
2023-03-13T07:37:17.840Z,99209.31
2023-03-13T07:39:45.505Z,99216.25
2023-03-13T07:42:13.688Z,99217.03
2023-03-13T07:44:42.315Z,99216.00
2023-03-13T07:47:10.363Z,99217.63
2023-03-13T07:49:42.153Z,99215.69
2023-03-13T07:52:11.632Z,99205.88
2023-03-13T07:54:39.312Z,99204.91
2023-03-13T07:57:07.718Z,99200.38
2023-03-13T07:59:35.297Z,99205.53
2023-03-13T08:02:03.677Z,99183.38
2023-03-13T08:04:31.389Z,99173.59
2023-03-13T08:06:59.888Z,99171.69
2023-03-13T08:09:28.850Z,99180.38
2023-03-13T08:11:56.531Z,99173.25
2023-03-13T08:14:24.588Z,99169.63
2023-03-13T08:16:52.546Z,99170.34
2023-03-13T08:19:20.138Z,99176.44
2023-03-13T08:21:47.720Z,99183.41
2023-03-13T08:24:15.358Z,99160.38
2023-03-13T08:26:44.323Z,99154.97
2023-03-13T08:29:14.025Z,99167.22
2023-03-13T08:31:45.175Z,99160.00
2023-03-13T08:34:13.442Z,99162.56
2023-03-13T08:36:41.633Z,99169.47
2023-03-13T08:39:13.095Z,99164.94
2023-03-13T08:41:41.652Z,99155.16
2023-03-13T08:44:13.389Z,99158.63
2023-03-13T08:46:43.879Z,99167.41
2023-03-13T08:49:12.608Z,99177.03
2023-03-13T08:51:40.841Z,99162.88
2023-03-13T08:54:08.684Z,99166.38
2023-03-13T08:56:36.281Z,99164.53
2023-03-13T08:59:05.938Z,99163.53
2023-03-13T09:01:36.433Z,99150.19
2023-03-13T09:04:04.965Z,99149.19
2023-03-13T09:06:33.457Z,99137.63
2023-03-13T09:09:01.112Z,99153.38
2023-03-13T09:11:28.706Z,99154.16
2023-03-13T09:13:59.204Z,99152.31
2023-03-13T09:16:29.156Z,99153.97
2023-03-13T09:18:59.558Z,99156.47
2023-03-13T09:21:29.428Z,99168.63
2023-03-13T09:23:57.918Z,99160.41
2023-03-13T09:26:27.533Z,99150.44
2023-03-13T09:28:55.817Z,99145.91
2023-03-13T09:31:25.411Z,99150.97
2023-03-13T09:33:53.342Z,99157.84
2023-03-13T09:36:23.834Z,99142.53
2023-03-13T09:38:51.852Z,99138.81
2023-03-13T09:41:27.325Z,99143.84
2023-03-13T09:44:01.841Z,99147.16
2023-03-13T09:46:37.894Z,99134.56
2023-03-13T09:49:13.424Z,99128.13
2023-03-13T09:51:46.808Z,99132.28
2023-03-13T09:54:25.133Z,99120.56
2023-03-13T09:56:57.603Z,99109.75
2023-03-13T09:59:30.905Z,99106.03
2023-03-13T10:02:01.677Z,99105.75
2023-03-13T10:04:33.775Z,99117.94
2023-03-13T10:07:03.687Z,99106.09
2023-03-13T10:09:33.121Z,99115.44
2023-03-13T10:12:09.579Z,99108.44
2023-03-13T10:14:46.549Z,99104.00
2023-03-13T10:17:28.305Z,99096.25
2023-03-13T10:19:59.049Z,99094.13
2023-03-13T10:22:32.255Z,99101.66
2023-03-13T10:25:03.814Z,99098.56
2023-03-13T10:27:31.426Z,99095.16
2023-03-13T10:29:58.992Z,99105.28
2023-03-13T10:32:28.271Z,99090.47
2023-03-13T10:34:59.080Z,99079.97
2023-03-13T10:37:29.878Z,99082.00
2023-03-13T10:40:13.237Z,99082.44
2023-03-13T10:42:45.188Z,99081.97
2023-03-13T10:45:17.342Z,99089.72
2023-03-13T10:47:44.949Z,99076.31
2023-03-13T10:50:19.326Z,99074.44
2023-03-13T10:52:49.932Z,99067.28
2023-03-13T10:55:20.151Z,99055.53
2023-03-13T10:57:58.040Z,99064.09
2023-03-13T11:00:36.177Z,99083.13
2023-03-13T11:03:07.903Z,99075.47
2023-03-13T11:05:39.911Z,99076.34
2023-03-13T11:08:22.417Z,99059.47
2023-03-13T11:10:58.707Z,99056.00
2023-03-13T11:13:37.137Z,99063.94
2023-03-13T11:16:18.966Z,99062.13
2023-03-13T11:19:01.363Z,99065.72
2023-03-13T11:22:28.146Z,99057.94
2023-03-13T11:25:04.471Z,99065.13
2023-03-13T11:27:39.907Z,99053.47
2023-03-13T11:30:17.991Z,99052.31
2023-03-13T11:32:52.238Z,99047.78
2023-03-13T11:35:37.107Z,99055.59
2023-03-13T11:38:09.773Z,99052.72
2023-03-13T11:40:43.094Z,99059.72
2023-03-13T11:43:34.205Z,99069.41
2023-03-13T11:46:23.621Z,99044.50
2023-03-13T11:49:06.954Z,99040.91
2023-03-13T11:51:49.324Z,99056.00
2023-03-13T11:54:43.013Z,99050.38
2023-03-13T11:57:15.873Z,99045.78
2023-03-13T11:59:54.496Z,99042.91
2023-03-13T12:02:27.219Z,99054.19
2023-03-13T12:04:58.293Z,99050.34
2023-03-13T12:07:31.087Z,99060.00
2023-03-13T12:10:03.295Z,99064.53
2023-03-13T12:12:41.501Z,99047.50
2023-03-13T12:15:19.712Z,99038.50
2023-03-13T12:17:51.665Z,99030.19
2023-03-13T12:20:24.607Z,99023.97
2023-03-13T12:22:58.245Z,99044.44
2023-03-13T12:25:31.913Z,99025.78
2023-03-13T12:28:05.887Z,99016.03
2023-03-13T12:30:40.971Z,99025.94
2023-03-13T12:33:19.620Z,99018.91
2023-03-13T12:35:55.006Z,99016.38
2023-03-13T12:38:27.281Z,98998.63
2023-03-13T12:41:09.806Z,99003.97
2023-03-13T12:43:41.047Z,99002.16
2023-03-13T12:46:32.254Z,98998.69
2023-03-13T12:49:14.868Z,98997.00
2023-03-13T12:51:57.813Z,98987.34
2023-03-13T12:54:42.057Z,98988.28
2023-03-13T12:57:28.520Z,99000.78
2023-03-13T13:00:05.717Z,98989.25
2023-03-13T13:02:34.099Z,98977.53
2023-03-13T13:05:04.958Z,98982.81
2023-03-13T13:07:34.436Z,98971.94
2023-03-13T13:10:16.924Z,98975.38
2023-03-13T13:12:47.294Z,98968.22
2023-03-13T13:15:23.942Z,98968.09
2023-03-13T13:18:24.603Z,98957.34
2023-03-13T13:21:26.550Z,98942.03
2023-03-13T13:23:56.601Z,98949.00
2023-03-13T13:26:54.869Z,98935.50
2023-03-13T13:29:59.658Z,98936.31
2023-03-13T13:32:44.305Z,98948.63
2023-03-13T13:35:33.524Z,98940.09
2023-03-13T13:38:34.452Z,98942.91
2023-03-13T13:41:05.336Z,98927.44
2023-03-13T13:43:36.065Z,98931.63
2023-03-13T13:46:17.258Z,98944.59
2023-03-13T13:48:46.514Z,98923.78
2023-03-13T13:51:25.956Z,98929.81
2023-03-13T13:54:00.489Z,98919.47
2023-03-13T13:56:47.913Z,98909.03
2023-03-13T13:59:32.871Z,98906.56
2023-03-13T14:02:24.852Z,98918.75
2023-03-13T14:05:00.633Z,98914.28
2023-03-13T14:07:42.697Z,98907.25
2023-03-13T14:10:22.443Z,98906.41
2023-03-13T14:12:54.268Z,98912.53
2023-03-13T14:15:24.311Z,98904.44
2023-03-13T14:17:53.698Z,98916.88
2023-03-13T14:20:28.501Z,98900.72
2023-03-13T14:23:00.007Z,98901.84
2023-03-13T14:25:41.564Z,98898.63
2023-03-13T14:28:18.004Z,98896.81
2023-03-13T14:30:46.409Z,98891.47
2023-03-13T14:33:14.498Z,98889.84
2023-03-13T14:35:44.266Z,98885.50
2023-03-13T14:38:20.844Z,98887.56
2023-03-13T14:40:49.253Z,98887.00
2023-03-13T14:43:32.355Z,98889.97
2023-03-13T14:46:00.973Z,98880.66
2023-03-13T14:48:32.746Z,98879.53
2023-03-13T14:51:15.537Z,98869.78
2023-03-13T14:53:56.520Z,98861.13
2023-03-13T14:56:33.361Z,98860.59
2023-03-13T14:59:09.190Z,98868.94
2023-03-13T15:01:37.248Z,98853.31
2023-03-13T15:04:05.292Z,98865.94
2023-03-13T15:06:34.365Z,98867.13
2023-03-13T15:09:23.825Z,98857.53
2023-03-13T15:11:57.968Z,98845.25
2023-03-13T15:14:40.329Z,98836.59
2023-03-13T15:17:18.219Z,98817.25
2023-03-13T15:19:50.124Z,98828.16
2023-03-13T15:22:21.175Z,98819.31
2023-03-13T15:25:04.979Z,98827.41
2023-03-13T15:27:33.384Z,98815.94
2023-03-13T15:30:01.158Z,98816.03
2023-03-13T15:32:31.172Z,98805.75
2023-03-13T15:35:06.213Z,98805.81
2023-03-13T15:37:36.980Z,98805.25
2023-03-13T15:40:08.066Z,98799.28
2023-03-13T15:42:35.783Z,98812.88
2023-03-13T15:45:05.170Z,98792.69
2023-03-13T15:47:32.851Z,98800.00
2023-03-13T15:50:00.661Z,98776.19
2023-03-13T15:52:29.942Z,98778.00
2023-03-13T15:54:58.966Z,98784.91
2023-03-13T15:57:27.963Z,98780.25
2023-03-13T15:59:55.881Z,98771.00
2023-03-13T16:02:25.031Z,98759.13
2023-03-13T16:04:53.128Z,98751.78
2023-03-13T16:07:22.104Z,98751.88
2023-03-13T16:09:50.119Z,98743.06
2023-03-13T16:12:19.429Z,98736.94
2023-03-13T16:14:47.222Z,98738.19
2023-03-13T16:17:17.762Z,98726.97
2023-03-13T16:19:47.479Z,98726.50
2023-03-13T16:22:15.973Z,98713.53
2023-03-13T16:24:43.691Z,98720.22
2023-03-13T16:27:14.820Z,98712.53
2023-03-13T16:29:49.634Z,98714.81
2023-03-13T16:32:24.280Z,98708.75
2023-03-13T16:34:52.060Z,98704.47
2023-03-13T16:37:21.429Z,98703.69
2023-03-13T16:39:50.860Z,98708.38
2023-03-13T16:42:18.680Z,98703.28
2023-03-13T16:44:47.811Z,98710.66
2023-03-13T16:47:21.119Z,98722.50
2023-03-13T16:49:49.131Z,98732.69
2023-03-13T16:52:18.630Z,98726.00
2023-03-13T16:54:47.281Z,98729.06
2023-03-13T16:57:17.346Z,98738.28
2023-03-13T16:59:45.096Z,98741.31
2023-03-13T17:02:16.960Z,98736.34
2023-03-13T17:04:45.663Z,98733.97
2023-03-13T17:07:20.499Z,98727.28
2023-03-13T17:09:48.827Z,98717.72
2023-03-13T17:12:16.984Z,98710.09
2023-03-13T17:14:44.885Z,98720.19
2023-03-13T17:17:16.414Z,98712.53
2023-03-13T17:19:44.170Z,98709.38
2023-03-13T17:22:13.431Z,98716.69
2023-03-13T17:24:41.991Z,98714.28
2023-03-13T17:27:13.238Z,98703.81
2023-03-13T17:29:41.569Z,98701.44
2023-03-13T17:32:10.940Z,98699.84
2023-03-13T17:34:40.174Z,98700.97
2023-03-13T17:37:15.492Z,98696.75
2023-03-13T17:39:44.352Z,98703.06
2023-03-13T17:42:12.415Z,98706.72
2023-03-13T17:44:41.169Z,98712.19
2023-03-13T17:47:13.566Z,98715.03
2023-03-13T17:49:42.934Z,98701.00
2023-03-13T17:52:14.270Z,98710.13
2023-03-13T17:54:42.657Z,98714.72
2023-03-13T17:57:16.164Z,98709.59
2023-03-13T17:59:44.172Z,98700.06
2023-03-13T18:02:13.734Z,98701.06
2023-03-13T18:04:43.880Z,98693.25
2023-03-13T18:07:18.504Z,98682.81
2023-03-13T18:09:47.886Z,98684.72
2023-03-13T18:12:16.049Z,98677.81
2023-03-13T18:14:43.837Z,98678.88
2023-03-13T18:17:17.254Z,98668.41
2023-03-13T18:19:46.789Z,98667.69
2023-03-13T18:22:15.930Z,98665.94
2023-03-13T18:24:44.637Z,98658.84
2023-03-13T18:27:14.308Z,98654.38
2023-03-13T18:29:42.661Z,98653.53
2023-03-13T18:32:13.365Z,98651.78
2023-03-13T18:34:41.328Z,98656.31
2023-03-13T18:37:21.740Z,98657.28
2023-03-13T18:39:51.206Z,98651.09
2023-03-13T18:42:19.480Z,98654.69
2023-03-13T18:44:47.300Z,98648.63
2023-03-13T18:47:17.573Z,98648.75
2023-03-13T18:49:47.066Z,98645.28
2023-03-13T18:52:16.120Z,98656.06
2023-03-13T18:54:44.423Z,98654.34
2023-03-13T18:57:15.214Z,98652.72
2023-03-13T18:59:43.914Z,98655.53
2023-03-13T19:02:14.923Z,98659.16
2023-03-13T19:04:42.778Z,98653.97
2023-03-13T19:07:17.294Z,98639.00
2023-03-13T19:09:46.952Z,98646.19
2023-03-13T19:12:15.501Z,98635.66
2023-03-13T19:14:43.479Z,98633.09
2023-03-13T19:17:17.279Z,98622.59
2023-03-13T19:19:45.017Z,98621.91
2023-03-13T19:22:15.274Z,98625.44
2023-03-13T19:24:44.477Z,98622.84
2023-03-13T19:27:14.860Z,98618.44
2023-03-13T19:29:42.507Z,98609.63
2023-03-13T19:32:14.432Z,98609.69
2023-03-13T19:34:42.307Z,98604.41
2023-03-13T19:37:11.305Z,98585.97
2023-03-13T19:39:39.071Z,98577.16
2023-03-13T19:42:08.344Z,98564.78
2023-03-13T19:44:37.771Z,98554.19
2023-03-13T19:47:06.450Z,98541.91
2023-03-13T19:49:34.629Z,98529.59
2023-03-13T19:52:02.376Z,98543.91
2023-03-13T19:54:29.947Z,98552.84
2023-03-13T19:56:57.846Z,98553.75
2023-03-13T20:01:16.816Z,98540.44
2023-03-13T20:03:45.894Z,98531.72
2023-03-13T20:06:17.396Z,98556.63
2023-03-13T20:08:45.904Z,98563.94
2023-03-13T20:11:13.932Z,98567.63
2023-03-13T20:13:42.061Z,98580.19
2023-03-13T20:16:11.844Z,98571.44
2023-03-13T20:18:39.526Z,98575.97
2023-03-13T20:21:07.760Z,98582.22
2023-03-13T20:23:35.459Z,98592.91
2023-03-13T20:26:05.898Z,98598.16
2023-03-13T20:28:33.783Z,98587.53
2023-03-13T20:31:01.750Z,98584.00
2023-03-13T20:33:30.874Z,98595.50
2023-03-13T20:36:00.367Z,98593.75
2023-03-13T20:38:28.782Z,98600.94
2023-03-13T20:40:58.079Z,98606.41
2023-03-13T20:43:26.543Z,98614.50
2023-03-13T20:45:54.358Z,98616.41
2023-03-13T20:48:22.932Z,98622.72
2023-03-13T20:50:53.692Z,98624.63
2023-03-13T20:53:22.569Z,98626.50
2023-03-13T20:55:50.593Z,98628.34
2023-03-13T20:58:20.170Z,98619.66
2023-03-13T21:00:48.414Z,98622.31
2023-03-13T21:03:17.355Z,98635.59
2023-03-13T21:05:45.725Z,98618.78
2023-03-13T21:08:14.711Z,98624.09
2023-03-13T21:10:42.901Z,98622.25
2023-03-13T21:13:11.372Z,98602.75
2023-03-13T21:15:40.478Z,98592.06
2023-03-13T21:18:08.505Z,98597.19
2023-03-13T21:20:36.118Z,98575.00
2023-03-13T21:23:03.856Z,98574.06
2023-03-13T21:25:32.790Z,98581.13
2023-03-13T21:28:00.719Z,98571.41
2023-03-13T21:30:28.379Z,98573.28
2023-03-13T21:32:56.072Z,98559.25
2023-03-13T21:35:23.769Z,98552.28
2023-03-13T21:37:51.404Z,98557.69
2023-03-13T21:40:19.002Z,98553.31
2023-03-13T21:42:47.958Z,98534.78
2023-03-13T21:45:15.754Z,98526.84
2023-03-13T21:47:43.371Z,98543.69
2023-03-13T21:50:13.325Z,98533.97
2023-03-13T21:52:42.323Z,98529.59
2023-03-13T21:55:13.003Z,98525.25
2023-03-13T21:57:41.031Z,98534.06
2023-03-13T22:00:14.067Z,98544.75
2023-03-13T22:02:41.989Z,98555.53
2023-03-13T22:05:10.132Z,98560.00
2023-03-13T22:07:37.807Z,98556.53
2023-03-13T22:10:06.136Z,98546.91
2023-03-13T22:12:33.744Z,98559.44
2023-03-13T22:15:01.348Z,98540.97
2023-03-13T22:17:30.347Z,98537.56
2023-03-13T22:19:57.957Z,98536.88
2023-03-13T22:22:26.310Z,98546.75
2023-03-13T22:24:54.186Z,98541.59
2023-03-13T22:27:23.318Z,98540.84
2023-03-13T22:29:51.196Z,98520.63
2023-03-13T22:32:18.852Z,98504.91
2023-03-13T22:34:49.080Z,98482.94
2023-03-13T22:37:16.973Z,98500.66
2023-03-13T22:39:44.600Z,98492.91
2023-03-13T22:42:12.551Z,98503.59
2023-03-13T22:44:40.183Z,98496.63
2023-03-13T22:47:07.852Z,98491.47
2023-03-13T22:49:35.563Z,98499.59
2023-03-13T22:52:04.999Z,98486.47
2023-03-13T22:54:32.843Z,98475.19
2023-03-13T22:57:00.425Z,98469.06
2023-03-13T22:59:28.047Z,98458.47
2023-03-13T23:01:55.681Z,98468.22
2023-03-13T23:04:23.281Z,98467.31
2023-03-13T23:06:50.870Z,98471.66
2023-03-13T23:09:19.859Z,98474.31
2023-03-13T23:11:47.462Z,98464.47
2023-03-13T23:14:15.083Z,98462.66
2023-03-13T23:16:42.747Z,98472.31
2023-03-13T23:19:10.338Z,98481.06
2023-03-13T23:21:37.894Z,98493.44
2023-03-13T23:24:06.081Z,98486.44
2023-03-13T23:26:34.990Z,98487.28
2023-03-13T23:29:02.599Z,98497.97
2023-03-13T23:31:30.181Z,98490.13
2023-03-13T23:33:59.071Z,98489.31
2023-03-13T23:36:27.074Z,98494.72
2023-03-13T23:38:57.314Z,98481.53
2023-03-13T23:41:24.946Z,98488.72
2023-03-13T23:43:53.883Z,98489.63
2023-03-13T23:46:23.158Z,98479.06
2023-03-13T23:48:53.572Z,98468.56
2023-03-13T23:51:21.237Z,98466.88
2023-03-13T23:53:48.826Z,98444.78
2023-03-13T23:56:16.709Z,98437.75
2023-03-13T23:58:45.037Z,98443.06
